Fairgrove, Michigan
Current Conditions -  °F | °C
As of 8:15 PM on Monday 20 Oct 2014 (Local Time) from KCFS Reporting Station
Overcast Overcast  
Wind Chill: 51°   Ceiling: 5000
Heat Index: 51°   Visibility: 10mi
Dew Point: 46°   Wind: 5mph
Humidity: 81%   Direction: 310°NW
Pressure: 29.84"   Gusts: NA
Location:  43.52°N, 83.54°W
Report Text: KCFS 210015Z AUTO 31004KT 10SM SCT021 SCT029 OVC050 11/08 A2984 RMK AO2 T01080077
Loading
Personal Weather Stations






























Interactive Weather Map
Tropical Storm Tracking
New forecast layout! Learn more

10-Day Weather Forecast

Advertisements
Track Severe Weather on mobile